createdAt,value
2018-11-06T00:00:28.053Z,100619.98
2018-11-06T00:03:02.374Z,100615.84
2018-11-06T00:05:31.452Z,100617.41
2018-11-06T00:08:01.539Z,100618.23
2018-11-06T00:10:30.590Z,100621.61
2018-11-06T00:12:59.666Z,100616.81
2018-11-06T00:15:28.736Z,100617.49
2018-11-06T00:17:57.797Z,100625.95
2018-11-06T00:20:26.846Z,100620.09
2018-11-06T00:22:55.902Z,100615.42
2018-11-06T00:25:24.961Z,100616.55
2018-11-06T00:27:54.015Z,100612.88
2018-11-06T00:30:23.048Z,100608.02
2018-11-06T00:32:52.098Z,100611.21
2018-11-06T00:35:21.140Z,100605.59
2018-11-06T00:37:50.201Z,100603.13
2018-11-06T00:40:19.801Z,100598.28
2018-11-06T00:42:48.868Z,100601.50
2018-11-06T00:45:17.943Z,100592.13
2018-11-06T00:47:47.017Z,100595.38
2018-11-06T00:50:16.080Z,100602.69
2018-11-06T00:52:45.315Z,100599.70
2018-11-06T00:55:14.681Z,100597.22
2018-11-06T00:57:44.527Z,100594.02
2018-11-06T01:00:16.397Z,100601.21
2018-11-06T01:02:45.630Z,100602.12
2018-11-06T01:05:15.500Z,100601.36
2018-11-06T01:07:47.570Z,100595.82
2018-11-06T01:10:16.719Z,100597.09
2018-11-06T01:12:45.765Z,100603.02
2018-11-06T01:15:16.284Z,100601.27
2018-11-06T01:17:46.595Z,100602.63
2018-11-06T01:20:17.997Z,100610.27
2018-11-06T01:22:47.314Z,100601.00
2018-11-06T01:25:16.812Z,100586.17
2018-11-06T01:27:46.745Z,100583.42
2018-11-06T01:30:18.810Z,100580.34
2018-11-06T01:32:48.174Z,100582.44
2018-11-06T01:35:17.706Z,100576.08
2018-11-06T01:37:49.649Z,100582.20
2018-11-06T01:40:19.273Z,100582.67
2018-11-06T01:42:48.675Z,100575.48
2018-11-06T01:45:18.166Z,100566.66
2018-11-06T01:47:47.507Z,100564.27
2018-11-06T01:50:17.697Z,100563.00
2018-11-06T01:52:47.586Z,100554.84
2018-11-06T01:55:16.637Z,100558.95
2018-11-06T01:57:45.662Z,100557.14
2018-11-06T02:00:16.662Z,100564.34
2018-11-06T02:02:45.753Z,100569.48
2018-11-06T02:05:15.976Z,100568.02
2018-11-06T02:07:46.182Z,100562.37
2018-11-06T02:10:16.011Z,100556.46
2018-11-06T02:12:47.791Z,100569.40
2018-11-06T02:15:16.888Z,100573.89
2018-11-06T02:17:46.981Z,100569.45
2018-11-06T02:20:16.934Z,100562.41
2018-11-06T02:22:46.502Z,100558.89
2018-11-06T02:25:15.718Z,100562.02
2018-11-06T02:27:44.742Z,100557.77
2018-11-06T02:30:15.403Z,100546.52
2018-11-06T02:32:45.031Z,100547.49
2018-11-06T02:35:14.042Z,100548.56
2018-11-06T02:37:43.145Z,100554.19
2018-11-06T02:40:14.411Z,100547.34
2018-11-06T02:42:43.571Z,100548.70
2018-11-06T02:45:13.349Z,100548.47
2018-11-06T02:47:42.886Z,100547.64
2018-11-06T02:52:41.199Z,100545.72
2018-11-06T02:55:10.925Z,100544.20
2018-11-06T02:57:40.942Z,100546.46
2018-11-06T03:00:12.547Z,100550.72
2018-11-06T03:02:41.597Z,100547.82
2018-11-06T03:05:10.981Z,100543.23
2018-11-06T03:07:40.402Z,100548.12
2018-11-06T03:10:10.472Z,100541.75
2018-11-06T03:12:40.404Z,100544.92
2018-11-06T03:15:10.357Z,100554.42
2018-11-06T03:17:39.422Z,100556.44
2018-11-06T03:20:09.330Z,100559.52
2018-11-06T03:22:38.361Z,100552.85
2018-11-06T03:25:07.675Z,100557.95
2018-11-06T03:27:36.782Z,100550.81
2018-11-06T03:30:08.239Z,100546.94
2018-11-06T03:32:37.516Z,100542.88
2018-11-06T03:35:07.533Z,100547.14
2018-11-06T03:37:37.614Z,100554.98
2018-11-06T03:40:07.110Z,100546.81
2018-11-06T03:42:36.313Z,100552.91
2018-11-06T03:45:05.865Z,100556.99
2018-11-06T03:47:34.948Z,100547.29
2018-11-06T03:50:04.029Z,100554.42
2018-11-06T03:52:33.089Z,100560.08
2018-11-06T03:55:03.026Z,100560.08
2018-11-06T03:57:32.101Z,100564.87
2018-11-06T04:00:01.815Z,100563.48
2018-11-06T04:02:30.842Z,100562.50
2018-11-06T04:04:59.907Z,100562.27
2018-11-06T04:07:28.932Z,100563.74
2018-11-06T04:09:57.975Z,100570.25
2018-11-06T04:12:27.030Z,100565.90
2018-11-06T04:14:56.083Z,100564.39
2018-11-06T04:17:25.709Z,100565.31
2018-11-06T04:19:54.779Z,100558.20
2018-11-06T04:22:23.830Z,100552.25
2018-11-06T04:24:52.882Z,100548.38
2018-11-06T04:27:21.960Z,100560.87
2018-11-06T04:29:51.003Z,100553.70
2018-11-06T04:32:20.093Z,100553.38
2018-11-06T04:34:49.170Z,100551.18
2018-11-06T04:37:18.226Z,100550.38
2018-11-06T04:39:47.275Z,100549.80
2018-11-06T04:42:16.340Z,100543.55
2018-11-06T04:44:45.383Z,100547.41
2018-11-06T04:47:14.445Z,100550.73
2018-11-06T04:49:43.496Z,100556.90
2018-11-06T04:52:12.746Z,100557.40
2018-11-06T04:54:41.797Z,100551.17
2018-11-06T04:57:10.833Z,100547.80
2018-11-06T04:59:39.901Z,100547.45
2018-11-06T05:02:08.998Z,100552.45
2018-11-06T05:04:38.010Z,100544.17
2018-11-06T05:07:07.050Z,100550.64
2018-11-06T05:09:36.067Z,100557.05
2018-11-06T05:12:05.321Z,100555.73
2018-11-06T05:14:34.342Z,100556.95
2018-11-06T05:17:03.443Z,100552.21
2018-11-06T05:19:32.492Z,100554.52
2018-11-06T05:22:01.572Z,100554.73
2018-11-06T05:24:30.609Z,100556.02
2018-11-06T05:26:59.674Z,100553.48
2018-11-06T05:29:28.695Z,100546.67
2018-11-06T05:31:57.778Z,100540.36
2018-11-06T05:34:26.867Z,100548.53
2018-11-06T05:36:55.988Z,100537.45
2018-11-06T05:39:25.093Z,100543.11
2018-11-06T05:41:54.136Z,100551.62
2018-11-06T05:44:23.170Z,100546.92
2018-11-06T05:46:53.090Z,100553.47
2018-11-06T05:49:22.141Z,100551.71
2018-11-06T05:51:51.182Z,100555.59
2018-11-06T05:54:20.202Z,100561.65
2018-11-06T05:56:49.273Z,100559.11
2018-11-06T05:59:18.345Z,100573.13
2018-11-06T06:01:48.021Z,100571.55
2018-11-06T06:04:17.401Z,100576.30
2018-11-06T06:06:46.474Z,100582.02
2018-11-06T06:09:16.380Z,100580.75
2018-11-06T06:11:45.469Z,100576.74
2018-11-06T06:14:15.004Z,100585.17
2018-11-06T06:16:44.065Z,100590.55
2018-11-06T06:19:13.152Z,100591.97
2018-11-06T06:21:42.233Z,100600.83
2018-11-06T06:24:11.384Z,100602.58
2018-11-06T06:26:40.414Z,100606.69
2018-11-06T06:29:09.478Z,100611.02
2018-11-06T06:31:39.507Z,100609.35
2018-11-06T06:34:08.659Z,100615.42
2018-11-06T06:36:37.756Z,100618.27
2018-11-06T06:39:08.381Z,100615.86
2018-11-06T06:41:37.544Z,100618.50
2018-11-06T06:44:06.845Z,100613.41
2018-11-06T06:46:36.095Z,100614.83
2018-11-06T06:49:05.204Z,100613.20
2018-11-06T06:51:34.264Z,100622.86
2018-11-06T06:54:03.438Z,100623.63
2018-11-06T06:56:32.467Z,100627.80
2018-11-06T06:59:01.492Z,100628.80
2018-11-06T07:01:30.559Z,100631.17
2018-11-06T07:04:00.621Z,100624.51
2018-11-06T07:06:30.034Z,100628.20
2018-11-06T07:08:59.070Z,100632.23
2018-11-06T07:11:28.462Z,100626.34
2018-11-06T07:13:57.534Z,100631.13
2018-11-06T07:16:26.640Z,100630.16
2018-11-06T07:18:55.748Z,100635.10
2018-11-06T07:21:25.102Z,100638.45
2018-11-06T07:26:52.536Z,100633.66
2018-11-06T07:29:21.713Z,100629.39
2018-11-06T07:31:53.732Z,100633.00
2018-11-06T07:34:22.860Z,100629.39
2018-11-06T07:36:51.977Z,100636.05
2018-11-06T07:39:21.089Z,100636.95
2018-11-06T07:41:50.125Z,100636.41
2018-11-06T07:44:19.267Z,100628.59
2018-11-06T07:46:48.405Z,100628.36
2018-11-06T07:49:17.544Z,100631.20
2018-11-06T07:51:46.597Z,100627.47
2018-11-06T07:54:15.750Z,100635.31
2018-11-06T07:56:44.818Z,100637.27
2018-11-06T07:59:13.879Z,100639.10
2018-11-06T08:01:43.218Z,100643.36
2018-11-06T08:04:12.313Z,100641.31
2018-11-06T08:06:41.357Z,100636.06
2018-11-06T08:09:11.040Z,100635.82
2018-11-06T08:11:40.750Z,100636.08
2018-11-06T08:14:09.842Z,100631.22
2018-11-06T08:16:39.055Z,100623.03
2018-11-06T08:19:08.080Z,100630.72
2018-11-06T08:21:38.920Z,100619.61
2018-11-06T08:24:08.461Z,100625.12
2018-11-06T08:26:37.547Z,100628.77
2018-11-06T08:29:07.515Z,100619.34
2018-11-06T08:31:36.847Z,100633.41
2018-11-06T08:34:07.164Z,100636.72
2018-11-06T08:36:36.338Z,100629.93
2018-11-06T08:39:07.934Z,100625.84
2018-11-06T08:41:37.857Z,100629.34
2018-11-06T08:44:06.990Z,100630.37
2018-11-06T08:46:36.092Z,100636.58
2018-11-06T08:49:05.219Z,100628.95
2018-11-06T08:51:35.832Z,100634.14
2018-11-06T08:54:05.294Z,100636.17
2018-11-06T08:56:35.350Z,100634.91
2018-11-06T08:59:04.469Z,100625.91
2018-11-06T09:01:33.556Z,100619.91
2018-11-06T09:04:02.665Z,100617.95
2018-11-06T09:06:31.711Z,100625.92
2018-11-06T09:09:00.816Z,100627.73
2018-11-06T09:11:29.840Z,100626.41
2018-11-06T09:13:58.910Z,100623.75
2018-11-06T09:16:27.953Z,100621.53
2018-11-06T09:18:56.987Z,100623.59
2018-11-06T09:21:26.038Z,100615.78
2018-11-06T09:23:55.112Z,100618.02
2018-11-06T09:26:24.189Z,100616.81
2018-11-06T09:28:53.393Z,100617.97
2018-11-06T09:31:22.445Z,100618.91
2018-11-06T09:33:52.438Z,100624.27
2018-11-06T09:36:21.478Z,100623.45
2018-11-06T09:38:50.521Z,100619.42
2018-11-06T09:41:19.622Z,100623.98
2018-11-06T09:43:50.233Z,100628.88
2018-11-06T09:46:19.246Z,100625.34
2018-11-06T09:48:48.390Z,100616.17
2018-11-06T09:51:17.408Z,100620.16
2018-11-06T09:53:46.466Z,100617.97
2018-11-06T09:56:16.359Z,100618.52
2018-11-06T09:58:45.444Z,100614.27
2018-11-06T10:01:14.534Z,100622.51
2018-11-06T10:03:43.614Z,100614.11
2018-11-06T10:06:12.753Z,100614.16
2018-11-06T10:08:41.864Z,100610.79
2018-11-06T10:11:10.893Z,100608.98
2018-11-06T10:13:39.966Z,100606.14
2018-11-06T10:16:09.021Z,100603.11
2018-11-06T10:18:38.083Z,100600.31
2018-11-06T10:21:07.265Z,100599.49
2018-11-06T10:23:36.302Z,100604.86
2018-11-06T10:26:05.636Z,100599.73
2018-11-06T10:28:35.058Z,100602.77
2018-11-06T10:31:04.155Z,100605.06
2018-11-06T10:33:33.215Z,100601.09
2018-11-06T10:36:02.344Z,100601.16
2018-11-06T10:38:37.086Z,100599.70
2018-11-06T10:41:06.162Z,100598.77
2018-11-06T10:43:35.222Z,100585.97
2018-11-06T10:46:04.331Z,100583.41
2018-11-06T10:48:33.406Z,100584.50
2018-11-06T10:51:04.423Z,100588.02
2018-11-06T10:53:33.443Z,100583.71
2018-11-06T10:56:02.562Z,100586.46
2018-11-06T10:58:31.633Z,100583.43
2018-11-06T11:01:05.895Z,100588.33
2018-11-06T11:03:41.006Z,100589.91
2018-11-06T11:06:10.085Z,100582.31
2018-11-06T11:08:39.121Z,100581.00
2018-11-06T11:11:09.722Z,100578.57
2018-11-06T11:13:38.817Z,100570.72
2018-11-06T11:16:08.016Z,100576.03
2018-11-06T11:18:37.110Z,100567.67
2018-11-06T11:21:06.682Z,100561.02
2018-11-06T11:23:35.756Z,100553.38
2018-11-06T11:26:04.834Z,100548.89
2018-11-06T11:28:33.944Z,100555.56
2018-11-06T11:31:02.995Z,100551.03
2018-11-06T11:33:32.305Z,100549.23
2018-11-06T11:36:01.409Z,100542.98
2018-11-06T11:38:30.378Z,100540.99
2018-11-06T11:40:59.482Z,100543.05
2018-11-06T11:43:28.583Z,100537.88
2018-11-06T11:45:57.715Z,100540.44
2018-11-06T11:48:26.678Z,100538.81
2018-11-06T11:50:55.803Z,100530.59
2018-11-06T11:53:24.845Z,100521.57
2018-11-06T11:55:53.866Z,100522.71
2018-11-06T11:58:23.027Z,100523.23
2018-11-06T12:00:52.093Z,100527.98
2018-11-06T12:03:21.131Z,100537.18
2018-11-06T12:05:50.158Z,100535.63
2018-11-06T12:08:19.246Z,100535.54
2018-11-06T12:10:48.309Z,100534.52
2018-11-06T12:13:17.445Z,100538.69
2018-11-06T12:15:46.490Z,100536.53
2018-11-06T12:18:15.606Z,100523.06
2018-11-06T12:20:44.711Z,100526.39
2018-11-06T12:23:13.781Z,100525.33
2018-11-06T12:25:43.015Z,100521.19
2018-11-06T12:28:11.886Z,100516.91
2018-11-06T12:30:41.005Z,100518.80
2018-11-06T12:33:10.060Z,100520.70
2018-11-06T12:35:39.164Z,100514.34
2018-11-06T12:38:08.276Z,100515.26
2018-11-06T12:40:37.337Z,100509.25
2018-11-06T12:43:07.394Z,100509.45
2018-11-06T12:45:36.466Z,100501.87
2018-11-06T12:48:05.706Z,100502.75
2018-11-06T12:50:34.901Z,100498.46
2018-11-06T12:53:04.058Z,100492.48
2018-11-06T12:55:33.150Z,100491.68
2018-11-06T12:58:02.224Z,100492.69
2018-11-06T13:00:32.128Z,100493.17
2018-11-06T13:03:01.209Z,100485.96
2018-11-06T13:05:30.279Z,100487.52
2018-11-06T13:07:59.337Z,100477.06
2018-11-06T13:10:28.412Z,100473.23
2018-11-06T13:12:57.463Z,100473.30
2018-11-06T13:15:26.616Z,100473.16
2018-11-06T13:17:55.873Z,100468.38
2018-11-06T13:20:24.994Z,100470.84
2018-11-06T13:22:56.394Z,100469.32
2018-11-06T13:25:26.510Z,100465.37
2018-11-06T13:27:55.566Z,100461.60
2018-11-06T13:30:24.677Z,100463.98
2018-11-06T13:32:53.738Z,100451.76
2018-11-06T13:35:23.813Z,100450.28
2018-11-06T13:37:52.885Z,100457.87
2018-11-06T13:40:22.014Z,100458.71
2018-11-06T13:42:51.228Z,100453.55
2018-11-06T13:45:23.139Z,100459.08
2018-11-06T13:47:52.047Z,100455.55
2018-11-06T13:50:21.830Z,100452.33
2018-11-06T13:52:50.866Z,100452.59
2018-11-06T13:55:19.902Z,100452.33
2018-11-06T13:57:48.954Z,100455.59
2018-11-06T14:00:19.349Z,100449.45
2018-11-06T14:02:48.404Z,100459.73
2018-11-06T14:05:17.692Z,100461.06
2018-11-06T14:07:47.034Z,100458.45
2018-11-06T14:10:16.403Z,100458.80
2018-11-06T14:12:45.843Z,100451.48
2018-11-06T14:15:14.993Z,100455.09
2018-11-06T14:17:44.027Z,100452.76
2018-11-06T14:20:14.375Z,100456.64
2018-11-06T14:22:43.573Z,100453.28
2018-11-06T14:25:12.689Z,100460.50
2018-11-06T14:27:43.749Z,100454.67
2018-11-06T14:30:15.693Z,100460.91
2018-11-06T14:32:45.014Z,100459.31
2018-11-06T14:35:15.227Z,100457.92
2018-11-06T14:37:47.071Z,100459.88
2018-11-06T14:40:16.685Z,100467.21
2018-11-06T14:42:46.236Z,100469.30
2018-11-06T14:45:16.723Z,100465.33
2018-11-06T14:47:46.047Z,100475.05
2018-11-06T14:50:15.258Z,100477.22
2018-11-06T14:52:44.279Z,100474.78
2018-11-06T14:55:14.662Z,100475.38
2018-11-06T14:57:44.405Z,100480.39
2018-11-06T15:00:19.103Z,100473.78
2018-11-06T15:02:49.444Z,100472.92
2018-11-06T15:05:19.266Z,100476.89
2018-11-06T15:07:51.130Z,100466.11
2018-11-06T15:10:20.223Z,100463.73
2018-11-06T15:12:49.710Z,100458.23
2018-11-06T15:15:18.742Z,100458.63
2018-11-06T15:17:48.381Z,100458.24
2018-11-06T15:20:19.008Z,100458.44
2018-11-06T15:22:48.116Z,100456.99
2018-11-06T15:25:17.934Z,100452.16
2018-11-06T15:27:48.986Z,100450.45
2018-11-06T15:30:19.103Z,100448.34
2018-11-06T15:32:50.974Z,100450.48
2018-11-06T15:35:21.339Z,100451.11
2018-11-06T15:37:51.601Z,100450.28
2018-11-06T15:40:21.854Z,100438.23
2018-11-06T15:42:50.925Z,100451.02
2018-11-06T15:45:20.498Z,100459.38
2018-11-06T15:47:50.222Z,100461.77
2018-11-06T15:50:20.331Z,100457.70
2018-11-06T15:52:50.465Z,100458.41
2018-11-06T15:55:19.868Z,100461.22
2018-11-06T15:57:49.527Z,100471.28
2018-11-06T16:00:22.869Z,100471.48
2018-11-06T16:02:52.110Z,100474.48
2018-11-06T16:05:21.503Z,100481.39
2018-11-06T16:07:50.994Z,100479.84
2018-11-06T16:10:21.354Z,100483.64
2018-11-06T16:12:50.526Z,100484.13
2018-11-06T16:15:40.875Z,100480.66
2018-11-06T16:18:11.009Z,100469.16
2018-11-06T16:20:50.416Z,100471.73
2018-11-06T16:23:41.866Z,100471.41
2018-11-06T16:26:14.954Z,100468.80
2018-11-06T16:28:51.391Z,100465.21
2018-11-06T16:31:40.821Z,100462.72
2018-11-06T16:34:24.067Z,100463.79
2018-11-06T16:36:55.816Z,100467.19
2018-11-06T16:39:29.186Z,100473.78
2018-11-06T16:42:10.895Z,100469.70
2018-11-06T16:44:57.287Z,100475.99
2018-11-06T16:47:36.457Z,100480.72
2018-11-06T16:50:16.590Z,100476.67
2018-11-06T16:52:51.443Z,100487.52
2018-11-06T16:58:23.979Z,100489.51
2018-11-06T17:01:05.073Z,100494.69
2018-11-06T17:03:49.508Z,100493.48
2018-11-06T17:09:07.454Z,100494.30
2018-11-06T17:11:46.523Z,100497.23
2018-11-06T17:14:18.180Z,100490.39
2018-11-06T17:16:55.372Z,100496.00
2018-11-06T17:22:14.069Z,100511.52
2018-11-06T17:24:44.536Z,100506.45
2018-11-06T17:27:13.955Z,100509.00
2018-11-06T17:29:43.381Z,100507.93
2018-11-06T17:32:14.531Z,100501.65
2018-11-06T17:35:08.857Z,100505.09
2018-11-06T17:51:43.038Z,100526.65
2018-11-06T17:54:13.033Z,100530.05
2018-11-06T17:56:42.463Z,100539.70
2018-11-06T17:59:30.526Z,100538.33
2018-11-06T18:02:07.664Z,100538.32
2018-11-06T18:04:37.146Z,100535.63
2018-11-06T18:07:07.146Z,100537.87
2018-11-06T18:09:38.275Z,100534.73
2018-11-06T18:12:09.458Z,100531.08
2018-11-06T18:14:47.274Z,100534.94
2018-11-06T18:17:20.006Z,100521.16
2018-11-06T18:19:50.140Z,100520.09
2018-11-06T18:22:20.375Z,100528.44
2018-11-06T18:24:50.238Z,100529.00
2018-11-06T18:27:19.442Z,100519.55
2018-11-06T18:29:49.139Z,100520.36
2018-11-06T18:32:18.404Z,100525.64
2018-11-06T18:34:47.405Z,100525.64
2018-11-06T18:37:16.625Z,100531.61
2018-11-06T18:39:45.647Z,100529.03
2018-11-06T18:42:15.857Z,100529.40
2018-11-06T18:44:45.455Z,100521.15
2018-11-06T18:47:14.568Z,100520.91
2018-11-06T18:49:43.640Z,100516.04
2018-11-06T18:52:12.724Z,100527.25
2018-11-06T18:54:41.844Z,100526.53
2018-11-06T18:57:11.530Z,100535.08
2018-11-06T18:59:40.684Z,100533.92
2018-11-06T19:02:13.899Z,100533.31
2018-11-06T19:04:43.346Z,100539.27
2018-11-06T19:07:12.486Z,100540.45
2018-11-06T19:09:41.519Z,100539.75
2018-11-06T19:12:10.862Z,100543.72
2018-11-06T19:14:39.941Z,100539.50
2018-11-06T19:17:09.259Z,100528.66
2018-11-06T19:19:38.666Z,100536.60
2018-11-06T19:22:08.235Z,100540.66
2018-11-06T19:24:37.307Z,100547.21
2018-11-06T19:27:08.693Z,100546.75
2018-11-06T19:29:38.533Z,100544.05
2018-11-06T19:32:08.071Z,100552.23
2018-11-06T19:34:37.157Z,100543.81
2018-11-06T19:37:06.721Z,100543.48
2018-11-06T19:39:36.459Z,100549.54
2018-11-06T19:42:05.929Z,100560.39
2018-11-06T19:44:35.053Z,100554.91
2018-11-06T19:47:04.164Z,100552.09
2018-11-06T19:49:33.237Z,100558.87
2018-11-06T19:52:02.341Z,100555.84
2018-11-06T19:54:32.377Z,100565.19
2018-11-06T19:57:01.365Z,100567.47
2018-11-06T19:59:30.488Z,100565.89
2018-11-06T20:01:59.756Z,100552.11
2018-11-06T20:04:28.912Z,100556.55
2018-11-06T20:06:57.975Z,100555.69
2018-11-06T20:09:27.120Z,100557.58
2018-11-06T20:11:56.270Z,100553.09
2018-11-06T20:14:25.293Z,100549.61
2018-11-06T20:16:54.357Z,100558.36
2018-11-06T20:19:23.457Z,100561.75
2018-11-06T20:21:53.245Z,100563.28
2018-11-06T20:24:22.389Z,100565.02
2018-11-06T20:26:51.465Z,100565.81
2018-11-06T20:29:20.572Z,100567.45
2018-11-06T20:31:49.688Z,100565.22
2018-11-06T20:34:19.933Z,100565.91
2018-11-06T20:36:49.032Z,100567.05
2018-11-06T20:39:18.337Z,100572.89
2018-11-06T20:41:47.503Z,100573.38
2018-11-06T20:44:16.633Z,100571.45
2018-11-06T20:46:46.417Z,100574.34
2018-11-06T20:49:15.548Z,100576.58
2018-11-06T20:51:44.608Z,100574.92
2018-11-06T20:54:13.731Z,100581.18
2018-11-06T20:56:42.823Z,100583.33
2018-11-06T20:59:11.914Z,100579.73
2018-11-06T21:01:41.037Z,100578.90
2018-11-06T21:04:10.129Z,100576.42
2018-11-06T21:06:39.260Z,100589.50
2018-11-06T21:09:09.610Z,100585.56
2018-11-06T21:11:39.667Z,100585.80
2018-11-06T21:14:08.979Z,100586.23
2018-11-06T21:19:30.552Z,100583.28
2018-11-06T21:22:02.678Z,100587.30
2018-11-06T21:24:31.823Z,100585.73
2018-11-06T21:27:00.949Z,100586.92
2018-11-06T21:29:29.895Z,100585.39
2018-11-06T21:31:58.987Z,100591.56
2018-11-06T21:34:28.034Z,100590.90
2018-11-06T21:36:57.187Z,100589.94
2018-11-06T21:39:26.377Z,100588.83
2018-11-06T21:41:56.358Z,100587.13
2018-11-06T21:44:25.426Z,100583.62
2018-11-06T21:46:54.508Z,100581.05
2018-11-06T21:49:23.639Z,100586.96
2018-11-06T21:51:52.718Z,100585.22
2018-11-06T21:54:21.770Z,100584.85
2018-11-06T21:56:50.862Z,100582.66
2018-11-06T21:59:19.921Z,100584.27
2018-11-06T22:01:49.794Z,100576.08
2018-11-06T22:04:18.862Z,100574.58
2018-11-06T22:06:47.965Z,100574.80
2018-11-06T22:09:17.014Z,100574.25
2018-11-06T22:11:46.115Z,100581.20
2018-11-06T22:14:15.681Z,100579.46
2018-11-06T22:16:44.736Z,100573.84
2018-11-06T22:19:13.774Z,100580.03
2018-11-06T22:21:43.590Z,100583.17
2018-11-06T22:24:12.586Z,100576.52
2018-11-06T22:26:41.668Z,100576.13
2018-11-06T22:29:11.381Z,100574.61
2018-11-06T22:31:40.550Z,100575.38
2018-11-06T22:34:09.562Z,100576.84
2018-11-06T22:36:38.638Z,100571.46
2018-11-06T22:39:09.237Z,100571.80
2018-11-06T22:41:38.748Z,100574.11
2018-11-06T22:44:08.109Z,100578.33
2018-11-06T22:46:37.450Z,100581.59
2018-11-06T22:49:06.976Z,100581.09
2018-11-06T22:51:36.016Z,100583.78
2018-11-06T22:54:06.263Z,100575.81
2018-11-06T22:56:35.401Z,100569.95
2018-11-06T22:59:04.513Z,100567.62
2018-11-06T23:01:33.613Z,100560.89
2018-11-06T23:04:02.655Z,100569.29
2018-11-06T23:06:31.794Z,100567.76
2018-11-06T23:09:00.786Z,100568.53
2018-11-06T23:11:29.870Z,100571.02
2018-11-06T23:13:58.939Z,100567.50
2018-11-06T23:16:28.028Z,100567.64
2018-11-06T23:18:58.136Z,100567.44
2018-11-06T23:21:27.258Z,100573.14
2018-11-06T23:23:56.352Z,100577.83
2018-11-06T23:26:25.424Z,100570.19
2018-11-06T23:28:54.468Z,100585.50
2018-11-06T23:31:23.592Z,100581.59
2018-11-06T23:33:57.568Z,100576.55
2018-11-06T23:36:26.641Z,100588.77
2018-11-06T23:38:55.717Z,100598.39
2018-11-06T23:41:24.825Z,100599.84
2018-11-06T23:43:53.904Z,100601.92
2018-11-06T23:46:23.927Z,100600.07
2018-11-06T23:48:53.020Z,100603.80
2018-11-06T23:51:22.057Z,100606.45
2018-11-06T23:53:51.153Z,100606.91
2018-11-06T23:56:20.273Z,100605.20
2018-11-06T23:58:49.321Z,100595.30
